Terminal Aerodrome Forecast
Issued by NWS

Home | Current Version | Previous Version | Text Only | Print | Product List | Glossary On
Versions: 1 2 3 4 5 6 7 8 9 10 11 12
000
FTAK31 PAJN 211700
TAFASI
TAF
PASI 211723Z 2118/2218 VRB03KT P6SM SKC
     FM211900 22007KT P6SM SKC
     FM220300 32005KT P6SM SKC
     FM221100 VRB03KT P6SM FEW010 SCT120
     FM221500 VRB03KT P6SM BKN012 BKN120=

USA.gov is the U.S. government's official web portal to all federal, state and local government web resources and services.